L M Clayton Airport
KOLF : now visible

Airfield :











YOU CAN JOIN US ON...

 
LOGIN :

Register | Disclaimer

   EN    FR    IT 

 









Legend :    VFR   Marginal VFR   IFR   Intensive IFR   Very Intensive IFR
Visi :
Ceiling :
>= 8 km
>= 3000ft
5 to 8 km
1000 to 3000 ft
1500m to 5 km
500 to 1000 ft
800 to 1500m
200 to 500 ft
< 800m
< 200 ft
Symbols :   Thunderstorms  Fog  Heavy snow  Heavy precipitations  Wind > 20 kt






- Airport Elevation : 1986 ft


KOLF - L M Clayton

CURRENT METAR :
  • 220353Z AUTO 00000KT 10SM CLR M07/M09 A3006 RMK AO2 SLP213 T10671094

EXPIRED METARs :
  • 220253Z AUTO 00000KT 10SM CLR M04/M08 A3007 RMK AO2 SLP215 I1000 I3000 T10391078 56006
  • 220153Z AUTO 00000KT 10SM CLR M04/M06 A3007 RMK AO2 SLP217 T10441061

TAF KOLF
Valid from the 22 at 00:00 until the 23 at 00:00 UTC


212322Z 2200/2224 VRB05KT P6SM FEW200
FM221800 25009KT P6SM SKC



MET'MAP, your aeronautical weather chart ! - Copyright ORBIFLY December 2007 - Disclaimer

ORBIFLY MET'MAP TEAM :

Programming & Development : Alexandra Zaïnal
Concept & Development : Baudouin d'Aumeries
Co-Development & Prog : Marc-Olivier Méhu
Technical & hardware support : Manuel Goepfert

Contact : metmap@orbifly.com




SOURCES & CREDITS :

   NOAA       Earth
Advisory